Time;durP1;ratioP1;P1;durP2;ratioP2;P2;SDS_P1;SDS_P2;PMS_P1;PMS_P2;Temp;Humidity;BMP_temperature;BMP_pressure;BME280_temperature;BME280_humidity;BME280_pressure;Samples;Min_cycle;Max_cycle;Signal;HPM_P1;HPM_P2
2022/11/14 00:00:49;;;;;;;19.45;13.25;;;7.40;99.90;;;;;;5040659;28;20051;-70
2022/11/14 00:03:33;;;;;;;24.20;13.82;;;7.30;99.90;;;;;;5053884;28;20044;-69
2022/11/14 00:06:17;;;;;;;24.23;13.50;;;7.30;99.90;;;;;;5053976;28;20052;-68
2022/11/14 00:09:02;;;;;;;21.02;13.65;;;7.40;99.90;;;;;;5054024;28;20036;-68
2022/11/14 00:11:46;;;;;;;25.20;12.65;;;7.30;99.90;;;;;;5054039;28;20048;-68
2022/11/14 00:14:30;;;;;;;19.95;12.73;;;7.40;99.90;;;;;;5040841;28;20135;-68
2022/11/14 00:17:15;;;;;;;19.33;12.80;;;7.10;99.90;;;;;;5053614;28;20048;-68
2022/11/14 00:19:59;;;;;;;18.15;12.05;;;6.70;99.90;;;;;;5054096;28;20036;-68
2022/11/14 00:22:43;;;;;;;20.27;12.57;;;6.60;99.90;;;;;;5053730;28;20401;-68
2022/11/14 00:25:27;;;;;;;22.73;12.80;;;7.00;99.90;;;;;;5053994;28;20567;-68
2022/11/14 00:28:12;;;;;;;21.77;13.55;;;7.00;99.90;;;;;;5053667;28;20036;-68
2022/11/14 00:30:56;;;;;;;18.35;13.38;;;7.00;99.90;;;;;;5053284;28;20067;-68
2022/11/14 00:33:40;;;;;;;20.35;13.00;;;7.10;99.90;;;;;;5053604;28;20575;-68
2022/11/14 00:36:24;;;;;;;20.98;13.48;;;7.00;99.90;;;;;;5053128;28;20044;-68
2022/11/14 00:39:13;;;;;;;19.30;12.55;;;7.00;99.90;;;;;;5053315;28;20036;-68
2022/11/14 00:41:57;;;;;;;20.05;13.63;;;6.90;99.90;;;;;;5042331;28;20032;-68
2022/11/14 00:44:42;;;;;;;28.08;13.25;;;6.80;99.90;;;;;;5053480;28;20032;-68
2022/11/14 00:47:26;;;;;;;19.98;12.00;;;6.90;99.90;;;;;;5053481;28;20060;-68
2022/11/14 00:50:10;;;;;;;20.58;12.95;;;6.90;99.90;;;;;;5039585;28;20120;-68
2022/11/14 00:52:54;;;;;;;25.02;13.10;;;6.90;99.90;;;;;;5053184;28;20052;-68
2022/11/14 00:55:38;;;;;;;21.75;14.23;;;6.80;99.90;;;;;;5053164;28;20056;-68
2022/11/14 00:58:23;;;;;;;17.75;12.63;;;7.10;99.90;;;;;;5053011;28;20055;-68
2022/11/14 01:01:07;;;;;;;17.88;12.25;;;7.10;99.90;;;;;;5053114;28;20423;-68
2022/11/14 01:03:51;;;;;;;17.92;11.95;;;7.00;99.90;;;;;;5052701;28;20027;-68
2022/11/14 01:06:36;;;;;;;19.48;12.75;;;6.90;99.90;;;;;;5052598;28;20043;-68
2022/11/14 01:09:20;;;;;;;24.20;13.43;;;6.90;99.90;;;;;;5039394;28;20052;-68
2022/11/14 01:12:04;;;;;;;21.20;13.05;;;7.00;99.90;;;;;;5052898;28;20195;-68
2022/11/14 01:14:48;;;;;;;24.40;11.75;;;6.90;99.90;;;;;;5052899;28;20078;-68
2022/11/14 01:17:32;;;;;;;18.23;12.48;;;6.50;99.90;;;;;;5051833;28;20043;-69
2022/11/14 01:20:16;;;;;;;19.83;12.93;;;6.90;99.90;;;;;;5052521;28;20102;-70
2022/11/14 01:23:00;;;;;;;18.08;12.70;;;6.90;99.90;;;;;;5052767;28;20036;-68
2022/11/14 01:25:44;;;;;;;18.33;12.20;;;6.80;99.90;;;;;;5051577;28;20051;-68
2022/11/14 01:28:28;;;;;;;20.35;12.20;;;6.80;99.90;;;;;;5053008;28;20098;-68
2022/11/14 01:31:22;;;;;;;17.35;11.00;;;6.30;99.90;;;;;;5052545;28;20185;-68
2022/11/14 01:34:06;;;;;;;19.52;12.82;;;6.10;99.90;;;;;;5052038;28;20178;-69
2022/11/14 01:36:51;;;;;;;17.08;11.73;;;6.40;99.90;;;;;;5052568;28;20047;-70
2022/11/14 01:39:35;;;;;;;16.23;11.52;;;6.40;99.90;;;;;;5052591;28;20112;-70
2022/11/14 01:42:19;;;;;;;17.65;11.93;;;6.50;99.90;;;;;;5052371;28;20082;-70
2022/11/14 01:45:41;;;;;;;15.95;11.57;;;6.50;99.90;;;;;;5039319;28;20043;-68
2022/11/14 01:48:36;;;;;;;17.23;11.73;;;6.70;99.90;;;;;;5037749;28;20040;-70
2022/11/14 01:51:36;;;;;;;19.45;11.65;;;6.70;99.90;;;;;;5052547;28;20511;-70
2022/11/14 01:54:31;;;;;;;16.55;10.60;;;6.70;99.90;;;;;;5052367;28;20071;-70
2022/11/14 01:57:18;;;;;;;15.88;11.05;;;6.20;99.90;;;;;;5052422;28;20544;-70
2022/11/14 02:00:08;;;;;;;16.13;10.75;;;5.90;99.90;;;;;;5053769;28;20152;-69
2022/11/14 02:02:53;;;;;;;17.30;11.63;;;5.90;99.90;;;;;;5071878;28;20412;-69
2022/11/14 02:05:38;;;;;;;18.00;12.13;;;5.90;99.90;;;;;;5070966;28;20047;-70
2022/11/14 02:08:24;;;;;;;18.70;11.43;;;6.10;99.90;;;;;;5072320;28;20550;-70
2022/11/14 02:11:12;;;;;;;22.27;13.75;;;6.40;99.90;;;;;;5072084;28;20109;-70
2022/11/14 02:13:57;;;;;;;22.02;12.30;;;6.60;99.90;;;;;;5071086;28;20392;-70
2022/11/14 02:16:43;;;;;;;20.92;11.95;;;6.70;99.90;;;;;;5074247;28;20090;-70
2022/11/14 02:19:45;;;;;;;16.23;11.40;;;6.50;99.90;;;;;;5075343;28;20052;-69
2022/11/14 02:22:29;;;;;;;19.30;11.85;;;6.40;99.90;;;;;;5076133;28;20044;-69
2022/11/14 02:25:17;;;;;;;18.10;10.65;;;6.20;99.90;;;;;;5075517;28;20062;-69
2022/11/14 02:28:01;;;;;;;20.33;12.40;;;6.10;99.90;;;;;;5075998;28;20082;-70
2022/11/14 02:30:46;;;;;;;15.75;10.98;;;6.10;99.90;;;;;;5060510;28;20044;-70
2022/11/14 02:33:30;;;;;;;17.15;10.65;;;6.20;99.90;;;;;;5075825;28;20557;-69
2022/11/14 02:36:14;;;;;;;18.42;11.43;;;6.20;99.90;;;;;;5051496;28;20120;-69
2022/11/14 02:38:58;;;;;;;15.52;10.75;;;6.40;99.90;;;;;;5075661;28;20094;-70
2022/11/14 02:41:42;;;;;;;19.45;12.35;;;6.50;99.90;;;;;;5075864;28;20044;-70
2022/11/14 02:44:26;;;;;;;19.73;12.20;;;6.40;99.90;;;;;;5074498;28;20032;-70
2022/11/14 02:47:10;;;;;;;18.15;12.25;;;6.40;99.90;;;;;;5075326;28;20034;-69
2022/11/14 02:49:55;;;;;;;18.23;11.73;;;6.30;99.90;;;;;;5075573;28;20083;-69
2022/11/14 02:52:40;;;;;;;16.13;11.68;;;6.00;99.90;;;;;;5074103;28;20052;-69
2022/11/14 02:55:24;;;;;;;18.77;11.95;;;6.00;99.90;;;;;;5075523;28;20067;-68
2022/11/14 02:58:08;;;;;;;15.68;11.55;;;6.00;99.90;;;;;;5075696;28;20040;-68
2022/11/14 03:00:52;;;;;;;20.10;11.40;;;5.90;99.90;;;;;;5074992;28;20086;-69
2022/11/14 03:03:37;;;;;;;19.35;11.60;;;6.10;99.90;;;;;;5075506;28;20085;-69
2022/11/14 03:06:21;;;;;;;23.80;13.20;;;6.10;99.90;;;;;;5075440;28;20086;-68
2022/11/14 03:09:05;;;;;;;18.35;11.27;;;6.20;99.90;;;;;;5075032;28;20085;-68
2022/11/14 03:11:49;;;;;;;19.70;12.45;;;6.10;99.90;;;;;;5074724;28;20050;-68
2022/11/14 03:14:33;;;;;;;17.92;11.05;;;6.10;99.90;;;;;;5075296;28;20098;-68
2022/11/14 03:17:17;;;;;;;18.05;12.80;;;5.90;99.90;;;;;;5074972;28;20404;-68
2022/11/14 03:20:02;;;;;;;16.85;11.55;;;5.90;99.90;;;;;;5074722;28;20039;-68
2022/11/14 03:22:46;;;;;;;16.88;11.82;;;5.80;99.90;;;;;;5075094;28;20381;-68
2022/11/14 03:25:30;;;;;;;21.00;12.38;;;5.80;99.90;;;;;;5075133;28;20074;-68
2022/11/14 03:28:15;;;;;;;18.20;11.77;;;6.00;99.90;;;;;;5074301;28;20085;-68
2022/11/14 03:30:59;;;;;;;20.42;12.60;;;5.90;99.90;;;;;;5074577;28;20117;-68
2022/11/14 03:33:43;;;;;;;21.70;12.48;;;6.00;99.90;;;;;;5074569;28;20158;-67
2022/11/14 03:36:27;;;;;;;20.35;12.20;;;6.00;99.90;;;;;;5074541;28;20546;-68
2022/11/14 03:39:11;;;;;;;21.88;12.00;;;6.00;99.90;;;;;;5074648;28;20063;-68
2022/11/14 03:41:55;;;;;;;21.08;12.93;;;5.80;99.90;;;;;;5074348;28;20384;-67
2022/11/14 03:44:39;;;;;;;18.75;12.10;;;5.60;99.90;;;;;;5073553;28;20044;-69
2022/11/14 03:47:24;;;;;;;13.88;10.20;;;5.60;99.90;;;;;;5074536;28;20423;-68
2022/11/14 03:50:08;;;;;;;18.25;12.23;;;5.50;99.90;;;;;;5074773;28;20090;-69
2022/11/14 03:52:53;;;;;;;15.98;11.38;;;5.60;99.90;;;;;;5074119;28;20052;-68
2022/11/14 03:55:37;;;;;;;26.00;13.32;;;5.70;99.90;;;;;;5074178;28;20043;-69
2022/11/14 03:58:22;;;;;;;17.63;12.00;;;5.80;99.90;;;;;;5074243;28;20063;-68
2022/11/14 04:01:06;;;;;;;18.90;11.98;;;5.70;99.90;;;;;;5074080;28;20070;-68
2022/11/14 04:03:50;;;;;;;16.60;11.70;;;5.70;99.90;;;;;;5073516;28;20419;-68
2022/11/14 04:06:34;;;;;;;18.98;12.10;;;5.70;99.90;;;;;;5073096;28;20392;-68
2022/11/14 04:09:18;;;;;;;23.30;13.70;;;5.40;99.90;;;;;;5074131;28;20044;-68
2022/11/14 04:12:03;;;;;;;17.60;12.68;;;5.50;99.90;;;;;;5073787;28;20079;-68
2022/11/14 04:14:47;;;;;;;19.80;12.60;;;5.60;99.90;;;;;;5072799;28;20040;-68
2022/11/14 04:17:31;;;;;;;20.38;12.77;;;5.60;99.90;;;;;;5073767;28;20102;-69
2022/11/14 04:20:15;;;;;;;24.73;13.25;;;5.60;99.90;;;;;;5074180;28;20447;-69
2022/11/14 04:23:00;;;;;;;20.77;14.38;;;5.50;99.90;;;;;;5073733;28;20121;-70
2022/11/14 04:25:45;;;;;;;20.67;13.75;;;5.50;99.90;;;;;;5073656;28;20054;-68
2022/11/14 04:28:29;;;;;;;19.75;12.75;;;5.60;99.90;;;;;;5073374;28;20537;-70
2022/11/14 04:31:13;;;;;;;26.77;13.40;;;5.70;99.90;;;;;;5073624;28;20035;-70
2022/11/14 04:33:57;;;;;;;31.00;13.27;;;5.50;99.90;;;;;;5073676;28;20124;-70
2022/11/14 04:36:41;;;;;;;29.10;13.30;;;5.70;99.90;;;;;;5072066;28;20044;-70
2022/11/14 04:39:26;;;;;;;26.67;12.52;;;5.60;99.90;;;;;;5072861;28;20554;-70
2022/11/14 04:42:10;;;;;;;20.35;13.25;;;5.50;99.90;;;;;;5073278;28;20082;-69
2022/11/14 04:44:54;;;;;;;21.70;12.63;;;5.40;99.90;;;;;;5073132;28;20569;-70
2022/11/14 04:47:39;;;;;;;23.00;14.15;;;5.50;99.90;;;;;;5073968;28;20031;-70
2022/11/14 04:50:23;;;;;;;26.20;13.52;;;5.50;99.90;;;;;;5072959;28;20070;-70
2022/11/14 04:53:08;;;;;;;28.42;13.95;;;5.60;99.90;;;;;;5073435;28;20097;-70
2022/11/14 04:55:52;;;;;;;22.30;13.75;;;5.50;99.90;;;;;;5073246;28;20423;-70
2022/11/14 04:58:36;;;;;;;30.45;15.27;;;5.60;99.90;;;;;;5072789;28;20127;-70
2022/11/14 05:01:20;;;;;;;19.27;13.23;;;5.60;99.90;;;;;;5073342;28;20047;-70
2022/11/14 05:04:04;;;;;;;23.08;15.13;;;5.50;99.90;;;;;;5072869;28;20047;-69
2022/11/14 05:06:48;;;;;;;24.25;14.18;;;5.50;99.90;;;;;;5070437;28;20051;-70
2022/11/14 05:09:33;;;;;;;29.27;13.80;;;5.30;99.90;;;;;;5071832;28;20044;-70
2022/11/14 05:12:17;;;;;;;22.40;14.23;;;5.10;99.90;;;;;;5072483;28;20110;-70
2022/11/14 05:15:02;;;;;;;24.92;13.70;;;5.00;99.90;;;;;;5072440;28;20067;-70
2022/11/14 05:17:46;;;;;;;17.75;12.48;;;4.80;99.90;;;;;;5071707;28;20094;-70
2022/11/14 05:20:31;;;;;;;23.67;14.35;;;4.80;99.90;;;;;;5072676;28;20035;-70
2022/11/14 05:23:24;;;;;;;24.60;13.95;;;4.90;99.90;;;;;;5071742;28;20078;-69
2022/11/14 05:26:11;;;;;;;21.35;13.75;;;5.00;99.90;;;;;;5071386;28;20039;-70
2022/11/14 05:28:55;;;;;;;20.85;13.73;;;5.10;99.90;;;;;;5072946;28;20048;-69
2022/11/14 05:31:39;;;;;;;21.88;13.52;;;5.00;99.90;;;;;;5072626;28;20074;-69
2022/11/14 05:34:24;;;;;;;21.25;13.38;;;4.80;99.90;;;;;;5072836;28;20039;-68
2022/11/14 05:37:08;;;;;;;23.88;14.48;;;4.80;99.90;;;;;;5072505;28;20098;-69
2022/11/14 05:39:52;;;;;;;26.30;14.00;;;5.10;99.90;;;;;;5071972;28;20031;-68
2022/11/14 05:42:36;;;;;;;20.58;14.35;;;4.90;99.90;;;;;;5071775;28;20051;-68
2022/11/14 05:45:20;;;;;;;27.25;14.75;;;5.00;99.90;;;;;;5072732;28;20392;-68
2022/11/14 05:48:05;;;;;;;24.52;13.93;;;5.10;99.90;;;;;;5071483;28;20040;-68
2022/11/14 05:51:00;;;;;;;24.58;13.80;;;5.00;99.90;;;;;;5062322;28;20393;-68
2022/11/14 05:53:44;;;;;;;21.65;14.43;;;4.90;99.90;;;;;;5076715;28;20089;-68
2022/11/14 05:56:29;;;;;;;24.65;14.25;;;4.80;99.90;;;;;;5076495;28;20063;-68
2022/11/14 05:59:13;;;;;;;27.50;14.30;;;4.90;99.90;;;;;;5076509;28;20035;-68
2022/11/14 06:01:57;;;;;;;29.33;14.02;;;5.00;99.90;;;;;;5076466;28;20043;-68
2022/11/14 06:04:41;;;;;;;27.33;13.30;;;4.80;99.90;;;;;;5075928;28;20039;-68
2022/11/14 06:07:25;;;;;;;21.77;13.88;;;4.70;99.90;;;;;;5076292;28;20039;-68
2022/11/14 06:10:09;;;;;;;20.90;13.30;;;4.80;99.90;;;;;;5076195;28;20185;-68
2022/11/14 06:12:54;;;;;;;26.42;13.52;;;4.70;99.90;;;;;;5075905;28;20055;-68
2022/11/14 06:15:38;;;;;;;35.70;13.95;;;4.60;99.90;;;;;;5076085;28;20085;-68
2022/11/14 06:18:22;;;;;;;27.67;14.60;;;4.70;99.90;;;;;;5076126;28;20454;-68
2022/11/14 06:21:15;;;;;;;25.27;14.10;;;4.70;99.90;;;;;;5074781;28;20050;-68
2022/11/14 06:23:59;;;;;;;21.30;14.18;;;4.70;99.90;;;;;;5075651;28;20070;-68
2022/11/14 06:26:43;;;;;;;26.73;14.77;;;4.70;99.90;;;;;;5075906;28;20051;-68
2022/11/14 06:29:27;;;;;;;25.55;13.45;;;4.70;99.90;;;;;;5075932;28;20038;-68
2022/11/14 06:32:11;;;;;;;23.33;14.38;;;4.60;99.90;;;;;;5075521;28;20046;-68
2022/11/14 06:34:55;;;;;;;19.05;13.18;;;4.60;99.90;;;;;;5075553;28;20606;-69
2022/11/14 06:37:39;;;;;;;23.65;14.05;;;4.50;99.90;;;;;;5075584;28;20035;-68
2022/11/14 06:40:23;;;;;;;29.30;14.95;;;4.60;99.90;;;;;;5075544;28;20028;-68
2022/11/14 06:43:07;;;;;;;21.98;15.23;;;4.70;99.90;;;;;;5075803;28;20460;-70
2022/11/14 06:45:55;;;;;;;23.98;14.95;;;4.70;99.90;;;;;;5075625;28;20512;-70
2022/11/14 06:48:40;;;;;;;29.90;14.43;;;4.70;99.90;;;;;;5075486;28;20070;-70
2022/11/14 06:51:24;;;;;;;29.08;15.80;;;4.90;99.90;;;;;;5073947;28;20036;-70
2022/11/14 06:54:12;;;;;;;26.77;16.20;;;5.10;99.90;;;;;;5074516;28;20170;-69
2022/11/14 06:56:56;;;;;;;26.55;16.33;;;5.10;99.90;;;;;;5075090;28;20078;-70
2022/11/14 06:59:40;;;;;;;29.30;16.70;;;5.20;99.90;;;;;;5074277;28;20035;-70
2022/11/14 07:02:24;;;;;;;29.35;16.65;;;5.10;99.90;;;;;;5074295;28;20050;-70
2022/11/14 07:05:08;;;;;;;28.83;16.63;;;5.00;99.90;;;;;;5075388;28;20553;-69
2022/11/14 07:07:52;;;;;;;23.45;15.20;;;4.90;99.90;;;;;;5055510;28;20102;-68
2022/11/14 07:10:37;;;;;;;26.13;15.52;;;4.80;99.90;;;;;;5042007;28;20036;-68
2022/11/14 07:13:21;;;;;;;26.35;14.57;;;4.80;99.90;;;;;;5044260;28;20504;-68
2022/11/14 07:16:05;;;;;;;35.35;16.13;;;4.70;99.90;;;;;;5051994;28;20124;-68
2022/11/14 07:18:49;;;;;;;34.72;16.92;;;4.80;99.90;;;;;;5046990;28;20043;-69
2022/11/14 07:21:34;;;;;;;30.75;15.27;;;4.60;99.90;;;;;;5062508;28;20063;-68
2022/11/14 07:24:19;;;;;;;29.58;14.20;;;4.70;99.90;;;;;;5062196;28;20513;-68
2022/11/14 07:27:07;;;;;;;25.88;15.65;;;4.90;99.90;;;;;;5054829;28;20167;-68
2022/11/14 07:29:51;;;;;;;31.20;16.02;;;4.80;99.90;;;;;;5054144;28;20508;-68
2022/11/14 07:32:35;;;;;;;33.38;15.57;;;5.10;99.90;;;;;;5047953;28;20055;-68
2022/11/14 07:35:19;;;;;;;26.35;15.82;;;5.20;99.90;;;;;;5055716;28;20036;-68
2022/11/14 07:38:04;;;;;;;38.90;17.70;;;5.10;99.90;;;;;;5053348;28;20102;-68
2022/11/14 07:41:00;;;;;;;32.47;16.00;;;5.20;99.90;;;;;;5053612;28;20035;-68
2022/11/14 07:43:45;;;;;;;28.95;16.60;;;5.20;99.90;;;;;;5064408;28;20404;-68
2022/11/14 07:46:29;;;;;;;33.45;16.20;;;5.10;99.90;;;;;;5065127;28;20492;-68
2022/11/14 07:49:13;;;;;;;33.67;16.48;;;5.20;99.90;;;;;;5055293;28;20536;-68
2022/11/14 07:51:57;;;;;;;26.60;15.95;;;5.30;99.90;;;;;;5054027;28;20130;-68
2022/11/14 07:54:41;;;;;;;29.92;16.65;;;5.40;99.90;;;;;;5058553;28;20078;-69
2022/11/14 07:57:26;;;;;;;24.55;16.38;;;5.50;99.90;;;;;;5063439;28;20036;-70
2022/11/14 08:00:10;;;;;;;30.00;17.23;;;5.50;99.90;;;;;;5059260;28;20048;-68
2022/11/14 08:02:55;;;;;;;26.63;15.25;;;5.50;99.90;;;;;;5053585;28;20511;-70
2022/11/14 08:05:40;;;;;;;28.85;16.08;;;5.60;99.90;;;;;;5064920;28;20040;-69
2022/11/14 08:08:24;;;;;;;29.08;16.30;;;5.70;99.90;;;;;;5058322;28;20043;-70
2022/11/14 08:11:08;;;;;;;30.70;17.45;;;5.90;99.90;;;;;;5073112;28;20067;-70
2022/11/14 08:13:52;;;;;;;28.85;17.15;;;6.10;99.90;;;;;;5072330;28;20120;-70
2022/11/14 08:16:36;;;;;;;35.58;19.23;;;6.30;99.90;;;;;;5068191;28;20036;-68
2022/11/14 08:19:20;;;;;;;28.90;16.77;;;6.40;99.90;;;;;;5072642;28;20408;-68
2022/11/14 08:22:06;;;;;;;29.60;16.52;;;6.60;99.90;;;;;;5066109;28;20034;-68
2022/11/14 08:24:50;;;;;;;25.58;17.50;;;6.80;99.90;;;;;;5063059;28;20405;-68
2022/11/14 08:27:35;;;;;;;31.63;18.40;;;7.10;99.90;;;;;;5072757;28;20097;-68
2022/11/14 08:30:19;;;;;;;42.40;18.50;;;7.40;99.90;;;;;;5072815;28;20455;-68
2022/11/14 08:33:04;;;;;;;29.48;16.60;;;7.50;99.90;;;;;;5072484;28;20091;-68
2022/11/14 08:35:49;;;;;;;28.80;16.20;;;7.80;99.90;;;;;;5061327;28;20085;-68
2022/11/14 08:38:33;;;;;;;26.92;15.75;;;7.80;99.90;;;;;;5052607;28;20038;-68
2022/11/14 08:41:18;;;;;;;24.98;16.95;;;8.00;99.90;;;;;;5073013;28;20451;-68
2022/11/14 08:44:02;;;;;;;26.85;17.02;;;8.00;99.90;;;;;;5072707;28;20500;-68
2022/11/14 08:46:48;;;;;;;29.65;15.95;;;8.10;99.90;;;;;;5059964;28;20039;-68
2022/11/14 08:49:32;;;;;;;29.48;16.35;;;8.30;99.90;;;;;;5056279;28;20044;-68
2022/11/14 08:52:16;;;;;;;26.27;14.20;;;8.50;99.90;;;;;;5070902;28;20063;-68
2022/11/14 08:55:01;;;;;;;23.83;13.25;;;8.90;99.90;;;;;;5072001;28;20047;-68
2022/11/14 08:57:46;;;;;;;19.80;13.25;;;9.30;99.90;;;;;;5060152;28;20047;-68
2022/11/14 09:00:30;;;;;;;22.27;13.40;;;9.20;99.90;;;;;;5061917;28;20035;-69
2022/11/14 09:03:15;;;;;;;20.58;12.25;;;9.10;99.90;;;;;;5072157;28;20036;-70
2022/11/14 09:06:00;;;;;;;19.27;12.73;;;8.60;99.90;;;;;;5072117;28;20129;-69
2022/11/14 09:08:44;;;;;;;27.00;13.45;;;8.80;99.90;;;;;;5061192;28;20067;-70
2022/11/14 09:11:28;;;;;;;20.38;12.27;;;9.40;99.90;;;;;;5072144;28;20089;-70
2022/11/14 09:14:12;;;;;;;25.13;12.55;;;9.70;99.90;;;;;;5071842;28;20119;-69
2022/11/14 09:16:56;;;;;;;31.38;13.35;;;9.90;99.90;;;;;;5046062;28;20119;-68
2022/11/14 09:19:40;;;;;;;19.40;13.32;;;10.20;99.90;;;;;;5071867;28;20113;-68
2022/11/14 09:22:24;;;;;;;28.17;15.40;;;10.30;99.90;;;;;;5072059;28;20416;-69
2022/11/14 09:25:08;;;;;;;29.88;14.48;;;10.30;99.90;;;;;;5071597;28;20117;-68
2022/11/14 09:27:53;;;;;;;24.30;13.18;;;10.00;99.90;;;;;;5071942;28;20040;-68
2022/11/14 09:30:38;;;;;;;23.50;13.35;;;10.10;99.90;;;;;;5072168;28;20048;-69
2022/11/14 09:33:23;;;;;;;20.77;12.48;;;10.10;99.90;;;;;;5071907;28;20392;-68
2022/11/14 09:36:10;;;;;;;23.83;13.15;;;10.50;99.90;;;;;;5071662;28;20249;-69
2022/11/14 09:38:54;;;;;;;20.23;12.80;;;10.50;99.90;;;;;;5059894;28;20113;-69
2022/11/14 09:41:50;;;;;;;26.90;14.02;;;10.40;99.90;;;;;;5066946;28;20105;-68
2022/11/14 09:44:55;;;;;;;20.38;13.02;;;9.80;99.90;;;;;;5051175;28;20082;-69
2022/11/14 09:47:48;;;;;;;17.95;12.98;;;10.10;99.90;;;;;;5063628;28;20046;-68
2022/11/14 09:50:39;;;;;;;22.30;12.23;;;10.50;99.90;;;;;;5065092;28;20039;-68
2022/11/14 09:53:45;;;;;;;21.27;14.00;;;10.60;99.90;;;;;;5070639;28;20044;-68
2022/11/14 09:56:29;;;;;;;22.27;12.88;;;11.00;99.90;;;;;;5071165;28;20040;-68
2022/11/14 09:59:14;;;;;;;17.73;12.30;;;11.30;99.90;;;;;;5070501;28;20082;-69
2022/11/14 10:02:21;;;;;;;19.90;11.90;;;11.50;99.90;;;;;;5071336;28;20143;-68
2022/11/14 10:05:14;;;;;;;18.77;13.63;;;11.20;99.90;;;;;;5070305;28;20114;-71
2022/11/14 10:08:06;;;;;;;19.15;12.50;;;11.30;99.90;;;;;;5061588;28;20036;-71
2022/11/14 10:11:00;;;;;;;19.27;12.05;;;11.00;99.90;;;;;;5055331;28;20557;-68
2022/11/14 10:13:52;;;;;;;20.20;11.88;;;11.40;99.90;;;;;;5057530;28;20094;-68
2022/11/14 10:16:58;;;;;;;21.45;12.98;;;11.40;99.90;;;;;;5064328;28;20043;-68
2022/11/14 10:20:20;;;;;;;21.45;13.23;;;11.80;99.90;;;;;;5071214;28;20052;-68
2022/11/14 10:23:42;;;;;;;18.55;12.13;;;11.90;99.90;;;;;;5057912;28;20032;-68
2022/11/14 10:26:32;;;;;;;18.13;11.48;;;12.00;99.90;;;;;;5071478;28;20039;-68
2022/11/14 10:29:39;;;;;;;19.27;11.70;;;12.10;99.90;;;;;;5067749;28;20417;-68
2022/11/14 10:32:29;;;;;;;21.67;12.68;;;13.00;99.90;;;;;;5067916;28;20554;-71
2022/11/14 10:35:27;;;;;;;17.00;11.43;;;12.50;99.90;;;;;;5054002;28;20036;-71
2022/11/14 10:38:36;;;;;;;17.25;11.60;;;12.50;99.90;;;;;;5052613;28;20059;-69
2022/11/14 10:41:24;;;;;;;17.98;11.45;;;12.80;99.90;;;;;;5046455;28;20040;-69
2022/11/14 10:44:15;;;;;;;18.88;11.50;;;12.90;99.90;;;;;;5065504;28;20036;-71
2022/11/14 10:47:10;;;;;;;21.00;11.30;;;12.80;99.90;;;;;;5052588;28;20033;-71
2022/11/14 10:50:01;;;;;;;22.67;11.52;;;13.20;99.90;;;;;;5058076;28;20086;-69
2022/11/14 10:52:47;;;;;;;20.20;10.52;;;13.40;99.90;;;;;;5059946;28;20052;-69
2022/11/14 10:55:31;;;;;;;20.50;11.70;;;13.40;99.90;;;;;;5040986;28;20052;-71
2022/11/14 10:58:15;;;;;;;17.27;11.88;;;12.90;99.90;;;;;;5059213;28;20044;-71
2022/11/14 11:01:34;;;;;;;21.63;12.00;;;13.30;99.90;;;;;;5057571;28;20052;-70
2022/11/14 11:04:28;;;;;;;19.58;11.30;;;14.40;99.90;;;;;;5056296;28;20032;-71
2022/11/14 11:13:33;;;;;;;15.73;11.10;;;14.80;99.90;;;;;;5058043;28;20128;-68
2022/11/14 11:16:26;;;;;;;16.55;10.70;;;14.80;99.90;;;;;;5056859;28;20439;-70
2022/11/14 11:19:23;;;;;;;18.05;11.23;;;15.10;99.90;;;;;;5062949;28;20132;-70
2022/11/14 11:22:34;;;;;;;15.70;11.27;;;15.20;99.90;;;;;;5059683;28;20512;-70
2022/11/14 11:25:27;;;;;;;20.65;11.75;;;15.10;99.90;;;;;;5057243;28;20507;-69
2022/11/14 11:28:15;;;;;;;18.52;11.13;;;14.20;99.90;;;;;;5054913;28;20040;-70
2022/11/14 11:31:03;;;;;;;20.60;11.63;;;14.80;99.90;;;;;;5061713;28;20047;-70
2022/11/14 11:33:48;;;;;;;17.83;11.15;;;14.80;99.90;;;;;;5053157;28;20487;-68
2022/11/14 11:36:39;;;;;;;15.65;11.07;;;15.90;99.90;;;;;;5054419;28;20124;-68
2022/11/14 11:39:30;;;;;;;21.88;11.40;;;16.10;99.90;;;;;;5054692;28;20389;-68
2022/11/14 11:42:25;;;;;;;17.65;11.45;;;15.70;99.90;;;;;;5054002;28;20040;-68
2022/11/14 11:45:16;;;;;;;20.83;10.75;;;16.10;99.90;;;;;;5054531;28;20397;-68
2022/11/14 11:48:12;;;;;;;;;;;15.60;99.90;;;;;;5054496;28;20102;-68
2022/11/14 11:50:59;;;;;;;17.63;10.75;;;16.00;99.90;;;;;;5054447;28;20003;-68
2022/11/14 11:53:57;;;;;;;21.95;11.18;;;15.80;99.90;;;;;;5054208;28;20051;-69
2022/11/14 11:56:42;;;;;;;19.30;11.25;;;15.80;99.90;;;;;;5054105;28;20052;-68
2022/11/14 11:59:50;;;;;;;15.60;10.77;;;16.00;99.90;;;;;;5054256;28;20487;-68
2022/11/14 12:02:38;;;;;;;16.02;10.98;;;16.70;99.90;;;;;;5053547;28;20031;-68
2022/11/14 12:05:53;;;;;;;19.38;11.25;;;16.40;99.90;;;;;;5053763;28;20091;-68
2022/11/14 12:09:05;;;;;;;24.98;10.80;;;16.40;99.90;;;;;;5061253;28;20582;-68
2022/11/14 12:12:04;;;;;;;18.17;10.77;;;16.30;99.90;;;;;;5073782;28;20546;-67
2022/11/14 12:15:07;;;;;;;13.73;10.55;;;16.90;99.60;;;;;;5073631;28;20035;-68
2022/11/14 12:18:25;;;;;;;20.50;11.55;;;16.90;99.90;;;;;;5072674;28;20047;-67
2022/11/14 12:21:21;;;;;;;19.38;11.45;;;16.80;99.90;;;;;;5072711;28;20044;-67
2022/11/14 12:24:14;;;;;;;17.80;11.18;;;17.20;99.90;;;;;;5061495;28;20086;-68
2022/11/14 12:27:29;;;;;;;21.08;11.15;;;17.20;99.10;;;;;;5061453;28;20503;-68
2022/11/14 12:30:20;;;;;;;21.40;11.32;;;16.20;99.90;;;;;;5071313;28;20035;-68
2022/11/14 12:33:18;;;;;;;16.80;11.37;;;16.00;99.90;;;;;;5062640;28;20087;-69
2022/11/14 12:36:08;;;;;;;21.30;12.02;;;16.80;99.90;;;;;;5052332;28;20071;-67
2022/11/14 12:38:53;;;;;;;25.23;12.02;;;16.90;99.90;;;;;;5073475;28;20047;-68
2022/11/14 12:41:39;;;;;;;25.92;11.95;;;16.90;99.90;;;;;;5072148;28;20703;-68
2022/11/14 12:44:26;;;;;;;22.10;12.35;;;17.80;98.90;;;;;;5073317;28;20558;-68
2022/11/14 12:47:16;;;;;;;29.45;12.57;;;17.70;98.90;;;;;;5073369;28;20063;-68
2022/11/14 12:50:05;;;;;;;20.15;12.05;;;18.80;96.80;;;;;;5073491;28;20086;-67
2022/11/14 12:52:51;;;;;;;21.55;12.35;;;19.70;96.40;;;;;;5072245;28;20075;-68
2022/11/14 12:55:36;;;;;;;19.48;11.98;;;18.90;96.80;;;;;;5071518;28;20082;-68
2022/11/14 12:58:40;;;;;;;22.90;13.38;;;17.80;98.00;;;;;;5073532;28;20063;-68
2022/11/14 13:01:53;;;;;;;22.08;12.23;;;17.50;98.70;;;;;;5072692;28;20039;-68
2022/11/14 13:04:37;;;;;;;;;;;17.90;98.40;;;;;;5073392;28;20136;-69
2022/11/14 13:07:32;;;;;;;22.00;13.40;;;17.80;98.40;;;;;;5072928;28;20007;-68
2022/11/14 13:10:26;;;;;;;22.17;12.77;;;17.30;99.50;;;;;;5072974;28;20388;-68
2022/11/14 13:22:45;;;;;;;26.65;13.40;;;17.40;99.10;;;;;;5072933;28;19954;-68
2022/11/14 13:25:30;;;;;;;31.70;12.90;;;18.30;98.20;;;;;;5072229;28;20040;-68
2022/11/14 13:28:36;;;;;;;31.70;13.95;;;18.20;98.00;;;;;;5072881;28;20591;-71
2022/11/14 13:31:28;;;;;;;25.33;12.82;;;17.90;97.80;;;;;;5071633;28;20039;-71
2022/11/14 13:34:37;;;;;;;24.73;13.32;;;16.90;99.10;;;;;;5072531;28;20503;-68
2022/11/14 13:37:49;;;;;;;32.35;12.77;;;16.80;99.70;;;;;;5070112;28;20081;-70
2022/11/14 13:40:34;;;;;;;;;;;17.00;99.30;;;;;;5064267;28;20400;-70
2022/11/14 13:43:46;;;;;;;25.25;13.63;;;16.90;99.00;;;;;;5054378;28;19916;-68
2022/11/14 13:46:49;;;;;;;;;;;16.90;99.70;;;;;;5056259;28;20427;-69
2022/11/14 13:49:47;;;;;;;25.20;13.23;;;17.10;99.30;;;;;;5072610;28;20406;-69
2022/11/14 13:52:34;;;;;;;23.35;15.90;;;16.70;99.90;;;;;;5072615;28;20109;-69
2022/11/14 13:55:31;;;;;;;25.85;17.00;;;16.60;99.90;;;;;;5072506;28;20531;-68
2022/11/14 13:58:32;;;;;;;34.45;17.88;;;15.50;99.90;;;;;;5072705;28;20453;-68
2022/11/14 14:01:29;;;;;;;24.15;15.25;;;14.60;99.90;;;;;;5072331;28;20031;-67
2022/11/14 14:04:28;;;;;;;29.10;17.75;;;13.90;99.90;;;;;;5072326;28;20152;-68
2022/11/14 14:07:18;;;;;;;29.17;17.38;;;14.10;99.90;;;;;;5072291;28;20039;-67
2022/11/14 14:10:21;;;;;;;26.65;17.48;;;14.10;99.90;;;;;;5072220;28;20024;-68
2022/11/14 14:13:29;;;;;;;36.30;19.20;;;13.30;99.90;;;;;;5073677;28;20048;-68
2022/11/14 14:16:39;;;;;;;29.73;18.05;;;14.20;99.90;;;;;;5075163;28;20039;-68
2022/11/14 14:19:54;;;;;;;25.35;17.42;;;13.70;99.90;;;;;;5076339;28;20102;-68
2022/11/14 14:22:46;;;;;;;29.77;20.10;;;13.50;99.90;;;;;;5075797;28;20180;-68
2022/11/14 14:25:57;;;;;;;27.60;19.00;;;13.10;99.90;;;;;;5075829;28;20035;-68
2022/11/14 14:28:57;;;;;;;30.55;18.40;;;12.60;99.90;;;;;;5075680;28;20043;-68
2022/11/14 14:31:42;;;;;;;26.50;19.02;;;12.50;99.90;;;;;;5075620;28;20101;-67
2022/11/14 14:34:29;;;;;;;27.20;18.65;;;12.70;99.90;;;;;;5075281;28;20051;-69
2022/11/14 14:37:32;;;;;;;31.63;20.35;;;12.60;99.90;;;;;;5075439;28;20496;-69
2022/11/14 14:40:34;;;;;;;34.15;22.38;;;12.40;99.90;;;;;;5075792;28;20044;-68